createdAt,value
2023-04-20T00:02:25.433Z,99.90
2023-04-20T00:04:54.478Z,99.90
2023-04-20T00:07:24.912Z,99.90
2023-04-20T00:09:52.730Z,99.90
2023-04-20T00:12:20.787Z,99.90
2023-04-20T00:14:48.985Z,99.90
2023-04-20T00:17:17.520Z,99.90
2023-04-20T00:19:45.841Z,99.90
2023-04-20T00:22:14.306Z,99.90
2023-04-20T00:24:44.737Z,99.90
2023-04-20T00:27:12.581Z,99.90
2023-04-20T00:29:40.816Z,99.90
2023-04-20T00:32:08.336Z,99.90
2023-04-20T00:34:36.278Z,99.90
2023-04-20T00:37:04.412Z,99.90
2023-04-20T00:39:32.520Z,99.90
2023-04-20T00:42:07.876Z,99.90
2023-04-20T00:44:36.020Z,99.90
2023-04-20T00:47:03.577Z,99.90
2023-04-20T00:49:33.344Z,99.90
2023-04-20T00:52:01.406Z,99.90
2023-04-20T00:58:47.559Z,99.90
2023-04-20T01:01:17.864Z,99.90
2023-04-20T01:03:47.483Z,99.90
2023-04-20T01:06:15.637Z,99.90
2023-04-20T01:08:50.995Z,99.90
2023-04-20T01:11:18.644Z,99.90
2023-04-20T01:13:46.067Z,99.90
2023-04-20T01:16:13.818Z,99.90
2023-04-20T01:18:46.797Z,99.90
2023-04-20T01:21:15.367Z,99.90
2023-04-20T01:23:43.132Z,99.90
2023-04-20T01:26:12.533Z,99.90
2023-04-20T01:28:40.387Z,99.90
2023-04-20T01:31:09.284Z,99.90
2023-04-20T01:33:36.904Z,99.90
2023-04-20T01:38:49.130Z,99.90
2023-04-20T01:41:16.531Z,99.90
2023-04-20T01:43:44.143Z,99.90
2023-04-20T01:46:12.832Z,99.90
2023-04-20T01:48:40.719Z,99.90
2023-04-20T01:51:09.708Z,99.90
2023-04-20T01:53:37.140Z,99.90
2023-04-20T01:56:04.472Z,99.90
2023-04-20T01:58:31.748Z,99.90
2023-04-20T02:01:01.291Z,99.90
2023-04-20T02:03:28.878Z,99.90
2023-04-20T02:05:56.403Z,99.90
2023-04-20T02:08:38.331Z,99.90
2023-04-20T02:11:33.770Z,99.90
2023-04-20T02:14:10.704Z,99.90
2023-04-20T02:16:38.070Z,99.90
2023-04-20T02:19:05.351Z,99.90
2023-04-20T02:21:32.851Z,99.90
2023-04-20T02:24:12.325Z,99.90
2023-04-20T02:26:39.566Z,99.90
2023-04-20T02:29:08.010Z,99.90
2023-04-20T02:31:35.314Z,99.90
2023-04-20T02:34:02.934Z,99.90
2023-04-20T02:36:30.183Z,99.90
2023-04-20T02:38:57.414Z,99.90
2023-04-20T02:41:24.691Z,99.90
2023-04-20T02:43:52.025Z,99.90
2023-04-20T02:46:20.698Z,99.90
2023-04-20T02:48:48.575Z,99.90
2023-04-20T02:51:16.307Z,99.90
2023-04-20T02:53:45.646Z,99.90
2023-04-20T02:56:27.104Z,99.90
2023-04-20T02:58:57.183Z,99.90
2023-04-20T03:01:42.733Z,99.90
2023-04-20T03:04:15.942Z,99.90
2023-04-20T03:06:51.181Z,99.90
2023-04-20T03:09:24.059Z,99.90
2023-04-20T03:12:14.628Z,99.90
2023-04-20T03:15:00.471Z,99.90
2023-04-20T03:17:47.311Z,99.90
2023-04-20T03:20:15.443Z,99.90
2023-04-20T03:22:42.877Z,99.90
2023-04-20T03:25:10.514Z,99.90
2023-04-20T03:28:04.120Z,99.90
2023-04-20T03:30:31.577Z,99.90
2023-04-20T03:33:10.666Z,99.90
2023-04-20T03:35:39.583Z,99.90
2023-04-20T03:38:06.966Z,99.90
2023-04-20T03:40:35.145Z,99.90
2023-04-20T03:43:02.995Z,99.90
2023-04-20T03:45:30.199Z,99.90
2023-04-20T03:47:57.428Z,99.90
2023-04-20T03:50:25.895Z,99.90
2023-04-20T03:52:53.084Z,99.90
2023-04-20T03:55:21.221Z,99.90
2023-04-20T03:57:55.123Z,99.90
2023-04-20T04:00:23.027Z,99.90
2023-04-20T04:02:53.880Z,99.90
2023-04-20T04:05:26.238Z,99.90
2023-04-20T04:07:53.737Z,99.90
2023-04-20T04:10:21.535Z,99.90
2023-04-20T04:12:49.798Z,99.90
2023-04-20T04:15:19.769Z,99.90
2023-04-20T04:17:55.151Z,99.90
2023-04-20T04:20:23.081Z,99.90
2023-04-20T04:22:52.165Z,99.90
2023-04-20T04:25:40.417Z,99.90
2023-04-20T04:28:09.467Z,99.90
2023-04-20T04:30:42.290Z,99.90
2023-04-20T04:33:19.123Z,99.90
2023-04-20T04:35:48.825Z,99.90
2023-04-20T04:38:17.003Z,99.90
2023-04-20T04:40:47.914Z,99.90
2023-04-20T04:43:15.122Z,99.90
2023-04-20T04:45:50.149Z,99.90
2023-04-20T04:48:19.891Z,99.90
2023-04-20T04:51:16.665Z,99.90
2023-04-20T04:53:36.333Z,99.90
2023-04-20T04:56:04.323Z,99.90
2023-04-20T04:58:31.492Z,99.90
2023-04-20T05:00:58.794Z,99.90
2023-04-20T05:03:26.296Z,99.90
2023-04-20T05:05:53.999Z,99.90
2023-04-20T05:08:24.468Z,99.90
2023-04-20T05:10:52.076Z,99.90
2023-04-20T05:13:19.306Z,99.90
2023-04-20T05:15:46.640Z,99.90
2023-04-20T05:18:13.820Z,99.90
2023-04-20T05:20:41.141Z,99.90
2023-04-20T05:23:10.677Z,99.90
2023-04-20T05:25:38.386Z,99.90
2023-04-20T05:28:06.102Z,99.90
2023-04-20T05:30:40.889Z,99.90
2023-04-20T05:33:08.757Z,99.90
2023-04-20T05:35:36.242Z,99.90
2023-04-20T05:38:06.383Z,99.90
2023-04-20T05:40:37.396Z,99.90
2023-04-20T05:43:04.861Z,99.90
2023-04-20T05:45:34.446Z,99.90
2023-04-20T05:48:01.888Z,99.90
2023-04-20T05:50:29.247Z,99.90
2023-04-20T05:52:56.400Z,99.90
2023-04-20T05:55:31.139Z,99.90
2023-04-20T05:57:58.482Z,99.90
2023-04-20T06:00:26.263Z,99.90
2023-04-20T06:02:55.137Z,99.90
2023-04-20T06:05:24.844Z,99.90
2023-04-20T06:07:52.127Z,99.90
2023-04-20T06:10:21.184Z,99.90
2023-04-20T06:12:48.868Z,99.90
2023-04-20T06:15:17.080Z,99.90
2023-04-20T06:17:44.427Z,99.90
2023-04-20T06:20:11.884Z,99.90
2023-04-20T06:22:48.513Z,99.90
2023-04-20T06:25:27.904Z,99.90
2023-04-20T06:27:55.227Z,99.90
2023-04-20T06:30:25.453Z,99.90
2023-04-20T06:32:52.781Z,99.90
2023-04-20T06:35:26.237Z,99.90
2023-04-20T06:37:55.789Z,99.90
2023-04-20T06:40:23.508Z,99.90
2023-04-20T06:42:50.810Z,99.90
2023-04-20T06:45:18.685Z,99.90
2023-04-20T06:47:45.996Z,99.90
2023-04-20T06:50:13.428Z,99.90
2023-04-20T06:52:43.755Z,99.90
2023-04-20T06:55:11.248Z,99.90
2023-04-20T06:57:39.625Z,99.90
2023-04-20T07:00:12.422Z,99.90
2023-04-20T07:02:48.523Z,99.90
2023-04-20T07:05:18.667Z,99.90
2023-04-20T07:07:46.273Z,99.90
2023-04-20T07:10:14.922Z,99.90
2023-04-20T07:12:44.740Z,99.90
2023-04-20T07:15:38.049Z,99.90
2023-04-20T07:18:05.306Z,99.90
2023-04-20T07:20:57.775Z,99.90
2023-04-20T07:23:31.413Z,99.90
2023-04-20T07:25:59.108Z,99.90
2023-04-20T07:28:26.396Z,99.90
2023-04-20T07:30:53.824Z,99.90
2023-04-20T07:33:21.306Z,99.90
2023-04-20T07:38:30.007Z,99.90
2023-04-20T07:40:57.222Z,99.90
2023-04-20T07:43:24.729Z,99.90
2023-04-20T07:45:52.144Z,99.90
2023-04-20T07:48:19.553Z,99.90
2023-04-20T07:51:16.075Z,99.90
2023-04-20T07:53:44.889Z,99.90
2023-04-20T07:56:12.117Z,99.90
2023-04-20T07:58:42.931Z,99.90
2023-04-20T08:01:11.449Z,99.90
2023-04-20T08:03:39.089Z,99.90
2023-04-20T08:06:06.694Z,99.90
2023-04-20T08:08:35.012Z,99.90
2023-04-20T08:11:02.594Z,99.90
2023-04-20T08:13:30.946Z,99.90
2023-04-20T08:15:58.319Z,99.90
2023-04-20T08:18:26.038Z,99.90
2023-04-20T08:20:54.328Z,99.90
2023-04-20T08:23:28.117Z,99.90
2023-04-20T08:25:55.651Z,99.90
2023-04-20T08:29:13.363Z,99.90
2023-04-20T08:31:40.920Z,99.90
2023-04-20T08:34:08.892Z,99.90
2023-04-20T08:36:36.681Z,99.90
2023-04-20T08:39:54.488Z,99.90
2023-04-20T08:43:12.757Z,99.90
2023-04-20T08:45:42.305Z,99.90
2023-04-20T08:48:36.828Z,99.90
2023-04-20T08:51:19.496Z,99.90
2023-04-20T08:53:50.547Z,99.90
2023-04-20T08:56:17.777Z,99.90
2023-04-20T08:59:22.486Z,99.90
2023-04-20T09:01:53.197Z,99.90
2023-04-20T09:04:22.792Z,99.90
2023-04-20T09:06:55.834Z,99.90
2023-04-20T09:09:25.733Z,99.90
2023-04-20T09:12:07.723Z,99.90
2023-04-20T09:14:45.866Z,99.90
2023-04-20T09:17:15.176Z,99.90
2023-04-20T09:19:45.169Z,99.90
2023-04-20T09:22:12.480Z,99.90
2023-04-20T09:24:41.225Z,99.90
2023-04-20T09:27:18.840Z,99.90
2023-04-20T09:29:57.874Z,99.90
2023-04-20T09:32:25.928Z,99.90
2023-04-20T09:34:52.884Z,99.90
2023-04-20T09:37:20.060Z,99.90
2023-04-20T09:39:47.223Z,99.90
2023-04-20T09:42:15.663Z,99.90
2023-04-20T09:44:43.573Z,99.90
2023-04-20T09:47:16.946Z,99.90
2023-04-20T09:49:47.631Z,99.90
2023-04-20T09:52:18.768Z,99.90
2023-04-20T09:54:46.272Z,99.90
2023-04-20T09:57:14.400Z,99.90
2023-04-20T09:59:44.182Z,99.90
2023-04-20T10:02:13.264Z,99.90
2023-04-20T10:04:56.759Z,99.90
2023-04-20T10:07:28.562Z,99.90
2023-04-20T10:10:07.300Z,99.90
2023-04-20T10:12:37.049Z,99.90
2023-04-20T10:15:04.414Z,99.90
2023-04-20T10:17:32.652Z,99.90
2023-04-20T10:19:59.948Z,99.90
2023-04-20T10:22:33.103Z,99.90
2023-04-20T10:25:02.258Z,99.90
2023-04-20T10:27:32.227Z,99.90
2023-04-20T10:30:10.291Z,99.90
2023-04-20T10:32:37.252Z,99.90
2023-04-20T10:35:10.908Z,99.90
2023-04-20T10:37:49.381Z,99.90
2023-04-20T10:40:16.716Z,99.90
2023-04-20T10:42:44.825Z,99.90
2023-04-20T10:45:12.665Z,99.90
2023-04-20T10:47:42.714Z,99.90
2023-04-20T10:50:12.302Z,99.90
2023-04-20T10:52:41.306Z,99.90
2023-04-20T10:55:22.768Z,99.90
2023-04-20T10:57:50.459Z,99.90
2023-04-20T11:00:19.010Z,99.90
2023-04-20T11:02:50.587Z,99.90
2023-04-20T11:05:18.157Z,99.90
2023-04-20T11:07:52.545Z,99.90
2023-04-20T11:10:20.862Z,99.90
2023-04-20T11:12:47.969Z,99.90
2023-04-20T11:15:16.418Z,99.90
2023-04-20T11:17:43.613Z,99.90
2023-04-20T11:20:17.209Z,99.90
2023-04-20T11:22:56.009Z,99.90
2023-04-20T11:25:23.000Z,99.90
2023-04-20T11:27:49.886Z,99.90
2023-04-20T11:30:17.115Z,99.90
2023-04-20T11:32:53.695Z,99.90
2023-04-20T11:35:20.848Z,99.90
2023-04-20T11:37:51.459Z,99.90
2023-04-20T11:40:18.727Z,99.90
2023-04-20T11:42:46.376Z,99.90
2023-04-20T11:45:13.429Z,99.90
2023-04-20T11:47:41.156Z,99.90
2023-04-20T11:50:10.461Z,99.90
2023-04-20T11:52:37.688Z,99.90
2023-04-20T11:55:05.057Z,99.90
2023-04-20T11:57:32.762Z,99.90
2023-04-20T11:59:59.759Z,99.90
2023-04-20T12:02:27.073Z,99.90
2023-04-20T12:04:54.266Z,99.90
2023-04-20T12:07:22.439Z,99.90
2023-04-20T12:09:49.537Z,99.90
2023-04-20T12:12:16.451Z,99.90
2023-04-20T12:14:43.337Z,99.90
2023-04-20T12:17:11.126Z,99.90
2023-04-20T12:19:38.070Z,99.90
2023-04-20T12:22:04.991Z,99.90
2023-04-20T12:24:34.428Z,99.90
2023-04-20T12:27:01.710Z,99.90
2023-04-20T12:29:31.253Z,99.90
2023-04-20T12:31:59.003Z,99.90
2023-04-20T12:34:26.846Z,99.90
2023-04-20T12:36:54.290Z,99.90
2023-04-20T12:39:22.119Z,99.90
2023-04-20T12:41:49.418Z,99.90
2023-04-20T12:44:17.815Z,99.90
2023-04-20T12:46:45.650Z,99.90
2023-04-20T12:49:13.026Z,99.50
2023-04-20T12:51:40.938Z,99.90
2023-04-20T12:54:08.710Z,99.90
2023-04-20T12:56:36.332Z,99.90
2023-04-20T12:59:03.721Z,99.90
2023-04-20T13:01:31.274Z,99.90
2023-04-20T13:04:20.891Z,99.90
2023-04-20T13:06:49.505Z,99.90
2023-04-20T13:09:16.901Z,99.90
2023-04-20T13:11:44.635Z,99.90
2023-04-20T13:14:11.898Z,99.90
2023-04-20T13:16:39.430Z,99.90
2023-04-20T13:19:06.802Z,99.90
2023-04-20T13:21:34.338Z,99.90
2023-04-20T13:24:01.952Z,99.90
2023-04-20T13:26:29.436Z,99.90
2023-04-20T13:28:58.557Z,99.90
2023-04-20T13:31:26.057Z,99.90
2023-04-20T13:33:56.214Z,99.90
2023-04-20T13:36:28.344Z,99.60
2023-04-20T13:38:56.264Z,99.30
2023-04-20T13:41:23.881Z,99.00
2023-04-20T13:43:51.950Z,99.50
2023-04-20T13:46:20.277Z,99.90
2023-04-20T13:48:47.520Z,99.90
2023-04-20T13:51:15.056Z,99.90
2023-04-20T13:53:42.458Z,99.60
2023-04-20T13:56:09.836Z,99.90
2023-04-20T13:58:37.249Z,99.80
2023-04-20T14:01:12.024Z,99.50
2023-04-20T14:03:39.274Z,99.50
2023-04-20T14:06:07.089Z,99.20
2023-04-20T14:08:34.571Z,99.40
2023-04-20T14:11:02.093Z,99.10
2023-04-20T14:13:29.237Z,99.40
2023-04-20T14:15:57.638Z,99.90
2023-04-20T14:18:24.777Z,99.90
2023-04-20T14:20:52.571Z,99.90
2023-04-20T14:23:19.959Z,99.90
2023-04-20T14:25:47.403Z,99.90
2023-04-20T14:28:16.882Z,99.90
2023-04-20T14:30:45.982Z,99.90
2023-04-20T14:33:13.627Z,99.90
2023-04-20T14:35:40.964Z,99.90
2023-04-20T14:38:08.549Z,99.90
2023-04-20T14:40:35.823Z,99.90
2023-04-20T14:43:03.145Z,99.90
2023-04-20T14:45:33.219Z,99.90
2023-04-20T14:48:00.678Z,99.90
2023-04-20T14:50:28.170Z,99.90
2023-04-20T14:52:56.264Z,99.90
2023-04-20T14:55:26.091Z,99.90
2023-04-20T14:57:58.071Z,99.90
2023-04-20T15:00:28.322Z,99.90
2023-04-20T15:03:01.314Z,99.90
2023-04-20T15:05:38.004Z,99.90
2023-04-20T15:08:06.829Z,99.90
2023-04-20T15:10:35.252Z,99.90
2023-04-20T15:13:03.230Z,99.90
2023-04-20T15:15:46.930Z,99.90
2023-04-20T15:18:16.727Z,99.90
2023-04-20T15:20:44.250Z,99.90
2023-04-20T15:23:11.832Z,99.90
2023-04-20T15:25:39.325Z,99.90
2023-04-20T15:28:06.996Z,99.90
2023-04-20T15:30:34.735Z,99.90
2023-04-20T15:33:04.740Z,99.90
2023-04-20T15:35:33.571Z,99.90
2023-04-20T15:38:01.020Z,99.90
2023-04-20T15:41:49.423Z,99.90
2023-04-20T15:44:18.356Z,99.90
2023-04-20T15:46:45.862Z,99.90
2023-04-20T15:49:13.108Z,99.90
2023-04-20T15:51:41.590Z,99.90
2023-04-20T15:54:09.845Z,99.90
2023-04-20T15:56:37.283Z,99.90
2023-04-20T15:59:30.096Z,99.90
2023-04-20T16:01:57.734Z,99.90
2023-04-20T16:04:25.568Z,99.90
2023-04-20T16:06:53.058Z,99.90
2023-04-20T16:09:21.695Z,99.90
2023-04-20T16:11:50.469Z,99.90
2023-04-20T16:14:18.152Z,99.90
2023-04-20T16:17:11.198Z,99.90
2023-04-20T16:19:38.465Z,99.90
2023-04-20T16:22:05.968Z,99.90
2023-04-20T16:24:33.644Z,99.90
2023-04-20T16:27:27.843Z,99.90
2023-04-20T16:29:55.268Z,99.90
2023-04-20T16:32:22.500Z,99.90
2023-04-20T16:34:49.786Z,99.90
2023-04-20T16:37:18.355Z,99.90
2023-04-20T16:39:48.455Z,99.90
2023-04-20T16:42:16.362Z,99.90
2023-04-20T16:44:43.831Z,99.90
2023-04-20T16:47:11.326Z,99.90
2023-04-20T16:49:38.857Z,99.90
2023-04-20T16:52:06.204Z,99.90
2023-04-20T16:54:33.961Z,99.90
2023-04-20T16:57:01.933Z,99.90
2023-04-20T16:59:29.332Z,99.90
2023-04-20T17:01:57.208Z,99.90
2023-04-20T17:04:25.432Z,99.90
2023-04-20T17:06:53.641Z,99.90
2023-04-20T17:09:23.896Z,99.90
2023-04-20T17:11:52.839Z,99.90
2023-04-20T17:14:21.202Z,99.90
2023-04-20T17:16:50.942Z,99.90
2023-04-20T17:19:19.833Z,99.90
2023-04-20T17:24:31.868Z,99.90
2023-04-20T17:26:59.298Z,99.90
2023-04-20T17:29:27.001Z,99.90
2023-04-20T17:31:55.368Z,99.90
2023-04-20T17:34:23.359Z,99.90
2023-04-20T17:36:50.909Z,99.90
2023-04-20T17:39:18.846Z,99.90
2023-04-20T17:41:46.433Z,99.90
2023-04-20T17:44:14.071Z,99.90
2023-04-20T17:46:41.896Z,99.90
2023-04-20T17:49:09.281Z,99.90
2023-04-20T17:51:36.674Z,99.90
2023-04-20T17:54:04.452Z,99.90
2023-04-20T17:56:31.975Z,99.90
2023-04-20T17:58:59.265Z,99.90
2023-04-20T18:01:28.201Z,99.90
2023-04-20T18:03:56.606Z,99.90
2023-04-20T18:06:28.074Z,99.90
2023-04-20T18:08:56.994Z,99.90
2023-04-20T18:11:24.214Z,99.90
2023-04-20T18:13:52.131Z,99.90
2023-04-20T18:16:19.744Z,99.90
2023-04-20T18:18:47.158Z,99.90
2023-04-20T18:21:15.412Z,99.90
2023-04-20T18:23:44.641Z,99.90
2023-04-20T18:26:18.083Z,99.90
2023-04-20T18:28:46.716Z,99.90
2023-04-20T18:31:40.303Z,99.90
2023-04-20T18:34:09.902Z,99.90
2023-04-20T18:36:37.996Z,99.90
2023-04-20T18:39:06.586Z,99.90
2023-04-20T18:41:34.604Z,99.90
2023-04-20T18:44:02.708Z,99.90
2023-04-20T18:47:03.827Z,99.90
2023-04-20T18:49:35.775Z,99.90
2023-04-20T18:52:32.529Z,99.90
2023-04-20T18:55:02.244Z,99.90
2023-04-20T18:57:31.086Z,99.90
2023-04-20T18:59:59.429Z,99.90
2023-04-20T19:02:28.671Z,99.90
2023-04-20T19:04:59.261Z,99.90
2023-04-20T19:07:31.607Z,99.90
2023-04-20T19:10:00.690Z,99.90
2023-04-20T19:12:35.952Z,99.90
2023-04-20T19:15:06.209Z,99.90
2023-04-20T19:17:36.923Z,99.90
2023-04-20T19:20:09.895Z,99.90
2023-04-20T19:22:45.427Z,99.90
2023-04-20T19:25:49.962Z,99.90
2023-04-20T19:28:55.670Z,99.90
2023-04-20T19:31:24.536Z,99.90
2023-04-20T19:33:55.300Z,99.90
2023-04-20T19:36:27.344Z,99.90
2023-04-20T19:38:56.481Z,99.90
2023-04-20T19:41:27.056Z,99.90
2023-04-20T19:43:55.476Z,99.90
2023-04-20T19:46:24.043Z,99.90
2023-04-20T19:48:53.271Z,99.90
2023-04-20T19:51:22.922Z,99.90
2023-04-20T19:53:51.337Z,99.90
2023-04-20T19:56:20.173Z,99.90
2023-04-20T19:58:48.113Z,99.90
2023-04-20T20:01:16.026Z,99.90
2023-04-20T20:03:44.081Z,99.90
2023-04-20T20:07:06.142Z,99.90
2023-04-20T20:09:34.513Z,99.90
2023-04-20T20:12:06.228Z,99.90
2023-04-20T20:14:36.475Z,99.90
2023-04-20T20:17:05.784Z,99.90
2023-04-20T20:19:33.715Z,99.90
2023-04-20T20:22:01.112Z,99.90
2023-04-20T20:24:28.639Z,99.90
2023-04-20T20:26:55.975Z,99.90
2023-04-20T20:29:24.206Z,99.90
2023-04-20T20:31:51.860Z,99.90
2023-04-20T20:34:19.540Z,99.90
2023-04-20T20:36:57.234Z,99.90
2023-04-20T20:39:25.024Z,99.90
2023-04-20T20:41:53.115Z,99.90
2023-04-20T20:44:20.977Z,99.90
2023-04-20T20:46:49.119Z,99.90
2023-04-20T20:49:17.328Z,99.90
2023-04-20T20:51:44.822Z,99.90
2023-04-20T20:54:12.120Z,99.90
2023-04-20T20:56:39.594Z,99.90
2023-04-20T20:59:07.164Z,99.90
2023-04-20T21:01:34.869Z,99.90
2023-04-20T21:04:02.366Z,99.90
2023-04-20T21:06:30.014Z,99.90
2023-04-20T21:08:58.700Z,99.90
2023-04-20T21:11:26.275Z,99.90
2023-04-20T21:13:54.708Z,99.90
2023-04-20T21:16:21.893Z,99.90
2023-04-20T21:18:49.641Z,99.90
2023-04-20T21:21:17.463Z,99.90
2023-04-20T21:23:45.133Z,99.90
2023-04-20T21:26:12.738Z,99.90
2023-04-20T21:28:40.150Z,99.90
2023-04-20T21:31:07.981Z,99.90
2023-04-20T21:33:36.027Z,99.90
2023-04-20T21:36:03.519Z,99.90
2023-04-20T21:38:31.202Z,99.90
2023-04-20T21:41:02.873Z,99.90
2023-04-20T21:43:30.125Z,99.90
2023-04-20T21:45:57.689Z,99.90
2023-04-20T21:48:25.090Z,99.90
2023-04-20T21:50:52.508Z,99.90
2023-04-20T21:53:20.125Z,99.90
2023-04-20T21:55:47.853Z,99.90
2023-04-20T21:58:15.861Z,99.90
2023-04-20T22:00:43.311Z,99.90
2023-04-20T22:03:11.128Z,99.90
2023-04-20T22:05:39.342Z,99.90
2023-04-20T22:08:06.918Z,99.90
2023-04-20T22:10:34.323Z,99.90
2023-04-20T22:13:01.737Z,99.90
2023-04-20T22:15:30.184Z,99.90
2023-04-20T22:18:00.972Z,99.90
2023-04-20T22:20:28.314Z,99.90
2023-04-20T22:22:56.171Z,99.90
2023-04-20T22:25:25.013Z,99.90
2023-04-20T22:27:52.232Z,99.90
2023-04-20T22:30:19.875Z,99.90
2023-04-20T22:32:47.447Z,99.90
2023-04-20T22:35:15.017Z,99.90
2023-04-20T22:37:42.175Z,99.90
2023-04-20T22:40:10.342Z,99.90
2023-04-20T22:42:37.837Z,99.90
2023-04-20T22:45:05.903Z,99.90
2023-04-20T22:47:33.284Z,99.90
2023-04-20T22:50:01.962Z,99.90
2023-04-20T22:52:29.252Z,99.90
2023-04-20T22:54:56.545Z,99.90
2023-04-20T22:57:24.246Z,99.90
2023-04-20T22:59:51.908Z,99.90
2023-04-20T23:02:19.476Z,99.90
2023-04-20T23:04:47.461Z,99.90
2023-04-20T23:07:15.091Z,99.90
2023-04-20T23:09:49.472Z,99.90
2023-04-20T23:12:22.422Z,99.90
2023-04-20T23:14:51.201Z,99.90
2023-04-20T23:17:18.960Z,99.90
2023-04-20T23:19:46.528Z,99.90
2023-04-20T23:22:14.361Z,99.90
2023-04-20T23:24:41.574Z,99.90
2023-04-20T23:27:08.956Z,99.90
2023-04-20T23:29:36.470Z,99.90
2023-04-20T23:32:03.881Z,99.90
2023-04-20T23:34:31.298Z,99.90
2023-04-20T23:36:58.820Z,99.90
2023-04-20T23:39:27.125Z,99.90
2023-04-20T23:41:54.374Z,99.90
2023-04-20T23:44:21.794Z,99.90
2023-04-20T23:46:49.106Z,99.90
2023-04-20T23:49:16.384Z,99.90
2023-04-20T23:51:43.575Z,99.90
2023-04-20T23:54:10.805Z,99.90
2023-04-20T23:56:37.955Z,99.90
2023-04-20T23:59:05.471Z,99.90
